Time;durP1;ratioP1;P1;durP2;ratioP2;P2;SDS_P1;SDS_P2;PMS_P1;PMS_P2;Temp;Humidity;BMP_temperature;BMP_pressure;BME280_temperature;BME280_humidity;BME280_pressure;Samples;Min_cycle;Max_cycle;Signal;HPM_P1;HPM_P2
2022/09/20 00:00:05;;;;;;;2.10;1.50;;;;;;;11.04;54.92;94884.50;5070892;28;20081;-73
2022/09/20 00:02:30;;;;;;;2.00;1.50;;;;;;;10.89;54.86;94881.38;5072254;28;20057;-73
2022/09/20 00:04:56;;;;;;;2.00;1.50;;;;;;;10.76;55.22;94888.56;5073419;28;20532;-73
2022/09/20 00:07:21;;;;;;;1.80;1.30;;;;;;;10.87;54.75;94888.50;5074387;28;20039;-73
2022/09/20 00:09:47;;;;;;;2.40;1.73;;;;;;;10.72;55.05;94888.78;5092620;28;20128;-73
2022/09/20 00:12:12;;;;;;;2.40;1.67;;;;;;;10.79;54.56;94888.28;5074363;28;20394;-73
2022/09/20 00:14:37;;;;;;;2.23;1.67;;;;;;;10.88;54.04;94887.53;5092352;28;20044;-73
2022/09/20 00:17:03;;;;;;;3.75;1.83;;;;;;;10.79;54.50;94880.50;5091064;28;20032;-73
2022/09/20 00:19:28;;;;;;;2.50;1.90;;;;;;;10.11;55.21;94862.56;5074416;28;20477;-73
2022/09/20 00:21:54;;;;;;;2.20;1.70;;;;;;;10.35;55.37;94895.34;5090979;28;19923;-73
2022/09/20 00:24:19;;;;;;;3.28;2.10;;;;;;;10.39;54.96;94907.97;5074215;28;20481;-73
2022/09/20 00:26:45;;;;;;;2.53;1.95;;;;;;;10.45;54.87;94898.84;5090918;28;20402;-73
2022/09/20 00:29:11;;;;;;;4.05;2.00;;;;;;;10.47;54.45;94887.38;5090862;28;20055;-73
2022/09/20 00:31:39;;;;;;;2.75;2.13;;;;;;;10.46;55.12;94898.69;5074027;28;20441;-73
2022/09/20 00:36:48;;;;;;;2.25;1.88;;;;;;;10.34;55.15;94894.50;5076549;28;20096;-72
2022/09/20 00:39:14;;;;;;;2.50;1.98;;;;;;;10.33;55.12;94900.63;5090494;28;20055;-73
2022/09/20 00:41:39;;;;;;;2.00;1.58;;;;;;;10.34;54.90;94893.69;5090668;28;20028;-72
2022/09/20 00:44:44;;;;;;;2.20;1.70;;;;;;;10.26;55.24;94891.69;5090580;28;20047;-73
2022/09/20 00:47:16;;;;;;;2.10;1.67;;;;;;;10.16;55.99;94896.75;5090497;28;20024;-72
2022/09/20 00:49:42;;;;;;;2.40;1.90;;;;;;;10.11;55.64;94904.09;5074129;28;20079;-73
2022/09/20 00:52:07;;;;;;;1.90;1.40;;;;;;;9.90;54.68;94879.84;5073503;28;20028;-73
2022/09/20 00:54:33;;;;;;;2.08;1.60;;;;;;;10.07;55.33;94903.50;5090570;28;20028;-73
2022/09/20 00:56:58;;;;;;;2.00;1.60;;;;;;;10.21;54.83;94910.22;5090377;28;20050;-72
2022/09/20 00:59:29;;;;;;;2.60;1.90;;;;;;;10.18;55.08;94905.25;5056877;28;20060;-72
2022/09/20 01:02:01;;;;;;;1.70;1.40;;;;;;;10.15;55.11;94897.72;5072758;28;20024;-72
2022/09/20 01:04:27;;;;;;;2.60;1.42;;;;;;;10.20;55.07;94898.19;5056604;28;20044;-72
2022/09/20 01:06:53;;;;;;;2.08;1.50;;;;;;;10.17;55.04;94893.25;5069893;28;20070;-72
2022/09/20 01:09:19;;;;;;;1.58;1.23;;;;;;;9.99;54.83;94868.75;5069805;28;20425;-73
2022/09/20 01:11:44;;;;;;;1.83;1.40;;;;;;;10.09;55.02;94879.22;5070312;28;20029;-73
2022/09/20 01:14:12;;;;;;;2.00;1.40;;;;;;;9.99;54.88;94885.13;5069960;28;20475;-72
2022/09/20 01:16:38;;;;;;;2.20;1.52;;;;;;;9.94;54.78;94860.50;5069789;28;20033;-73
2022/09/20 01:19:12;;;;;;;1.98;1.40;;;;;;;10.00;54.84;94879.00;5053093;28;20035;-73
2022/09/20 01:21:37;;;;;;;1.95;1.50;;;;;;;9.84;54.73;94881.97;5053983;28;20119;-72
2022/09/20 01:24:18;;;;;;;1.70;1.40;;;;;;;9.87;54.59;94880.09;5069737;28;20483;-73
2022/09/20 01:27:13;;;;;;;2.30;1.60;;;;;;;9.88;54.83;94881.75;5069550;28;20040;-72
2022/09/20 01:30:14;;;;;;;;;;;;;;;9.83;54.52;94880.34;5053070;28;20544;-73
2022/09/20 01:32:39;;;;;;;;;;;;;;;9.83;54.19;94874.31;5048690;28;20460;-72
2022/09/20 01:35:05;;;;;;;1.90;1.60;;;;;;;9.75;54.51;94877.53;5066398;28;20152;-73
2022/09/20 01:37:42;;;;;;;2.58;1.85;;;;;;;9.82;53.95;94865.72;5069407;28;20047;-72
2022/09/20 02:00:52;;;;;;;3.00;2.45;;;;;;;10.28;52.38;94895.84;5138114;27;20401;-75
2022/09/20 02:03:42;;;;;;;2.90;2.20;;;;;;;10.20;52.56;94890.41;5125405;28;20039;-74
2022/09/20 02:06:16;;;;;;;2.90;2.30;;;;;;;10.08;53.00;94891.34;5106953;28;20482;-74
2022/09/20 02:09:03;;;;;;;2.75;2.13;;;;;;;9.87;53.73;94877.50;5105264;28;20028;-74
2022/09/20 02:11:34;;;;;;;2.23;1.93;;;;;;;9.89;53.74;94883.38;5105792;28;20031;-74
2022/09/20 02:14:04;;;;;;;3.40;2.05;;;;;;;9.86;54.42;94874.06;5087719;28;20483;-74
2022/09/20 02:16:49;;;;;;;2.30;1.83;;;;;;;9.93;54.27;94880.44;5106712;28;20036;-74
2022/09/20 02:19:39;;;;;;;2.55;2.03;;;;;;;9.68;55.28;94865.16;5102531;28;20024;-74
2022/09/20 02:22:36;;;;;;;2.63;1.80;;;;;;;9.72;55.14;94870.00;5113317;28;20028;-74
2022/09/20 02:25:21;;;;;;;2.13;1.73;;;;;;;9.60;55.48;94871.75;5079313;28;20049;-74
2022/09/20 02:28:04;;;;;;;2.20;1.85;;;;;;;9.58;56.28;94875.41;5117918;28;21060;-74
2022/09/20 02:30:48;;;;;;;2.67;1.83;;;;;;;9.64;56.38;94864.56;5101131;28;20043;-74
2022/09/20 02:33:35;;;;;;;2.33;1.80;;;;;;;9.54;55.76;94863.63;5106875;28;20032;-74
2022/09/20 02:36:10;;;;;;;3.20;1.90;;;;;;;9.55;55.69;94873.06;5105024;28;20020;-74
2022/09/20 02:38:43;;;;;;;2.90;2.10;;;;;;;9.61;56.35;94864.78;5089857;28;20504;-75
2022/09/20 02:41:36;;;;;;;2.60;2.20;;;;;;;9.50;56.77;94873.44;5087969;28;20114;-75
2022/09/20 02:44:46;;;;;;;2.47;1.88;;;;;;;9.34;57.11;94873.78;5058265;28;20119;-75
2022/09/20 02:47:41;;;;;;;2.95;2.35;;;;;;;9.03;57.73;94864.13;5114679;28;20044;-74
2022/09/20 02:50:30;;;;;;;2.95;2.20;;;;;;;9.04;58.16;94882.13;5106412;28;20046;-74
2022/09/20 02:53:21;;;;;;;2.90;2.58;;;;;;;9.04;58.15;94881.31;5089226;28;20040;-74
2022/09/20 02:56:13;;;;;;;2.60;2.20;;;;;;;9.03;57.81;94884.84;5107654;28;20030;-74
2022/09/20 02:59:10;;;;;;;2.78;2.30;;;;;;;9.03;58.10;94884.84;5105891;28;20059;-74
2022/09/20 03:02:10;;;;;;;4.38;2.42;;;;;;;9.12;58.39;94891.91;5089302;28;20036;-74
2022/09/20 03:04:49;;;;;;;2.65;2.30;;;;;;;9.01;58.34;94882.34;5080549;28;20044;-76
2022/09/20 03:07:21;;;;;;;3.00;2.45;;;;;;;9.08;58.42;94890.47;5054076;28;20059;-75
2022/09/20 03:10:09;;;;;;;2.55;2.15;;;;;;;8.95;58.98;94873.28;5071396;28;20524;-76
2022/09/20 03:12:48;;;;;;;3.72;2.38;;;;;;;8.94;59.42;94900.16;5079559;28;20094;-76
2022/09/20 03:15:16;;;;;;;2.40;2.10;;;;;;;9.09;59.02;94898.16;5105406;27;20039;-76
2022/09/20 03:17:57;;;;;;;2.90;2.17;;;;;;;9.15;58.94;94894.28;5090444;28;20088;-76
2022/09/20 03:20:25;;;;;;;2.70;2.10;;;;;;;9.08;58.95;94909.47;5078032;28;20941;-76
2022/09/20 03:23:04;;;;;;;3.72;2.90;;;;;;;9.01;59.20;94900.50;5093253;28;20266;-76
2022/09/20 03:26:10;;;;;;;2.92;2.22;;;;;;;8.91;59.57;94902.97;5074777;28;20028;-75
2022/09/20 03:28:53;;;;;;;3.08;2.55;;;;;;;9.05;59.25;94906.25;5084527;28;20493;-76
2022/09/20 03:31:30;;;;;;;2.80;2.20;;;;;;;8.93;59.42;94916.59;5090600;28;20024;-75
2022/09/20 03:34:33;;;;;;;2.67;2.30;;;;;;;8.98;59.10;94920.63;5075923;28;20074;-76
2022/09/20 03:37:02;;;;;;;3.20;2.70;;;;;;;9.11;58.54;94913.56;5098784;28;20043;-76
2022/09/20 03:39:36;;;;;;;2.90;2.60;;;;;;;8.98;59.27;94907.69;5087397;28;20107;-76
2022/09/20 03:42:28;;;;;;;3.60;2.75;;;;;;;9.00;59.13;94910.97;5097833;28;20034;-76
2022/09/20 03:45:25;;;;;;;2.67;2.47;;;;;;;8.98;59.37;94916.28;5079103;28;20059;-76
2022/09/20 03:47:59;;;;;;;3.20;2.55;;;;;;;8.88;59.44;94916.13;5073524;28;20052;-76
2022/09/20 03:50:34;;;;;;;2.70;2.10;;;;;;;8.80;59.71;94904.69;5083848;28;20040;-75
2022/09/20 03:53:08;;;;;;;5.75;4.32;;;;;;;8.60;59.84;94911.34;5074388;28;20032;-76
2022/09/20 03:55:42;;;;;;;4.75;3.63;;;;;;;8.62;59.31;94909.47;5080250;28;20033;-76
2022/09/20 03:58:26;;;;;;;5.38;2.90;;;;;;;8.70;59.41;94913.13;5104661;28;20028;-76
2022/09/20 04:01:28;;;;;;;3.00;2.70;;;;;;;8.67;59.58;94915.97;5091174;28;20296;-76
2022/09/20 04:03:57;;;;;;;2.92;2.40;;;;;;;8.72;59.95;94915.63;5078192;28;20032;-75
2022/09/20 04:06:49;;;;;;;3.67;2.50;;;;;;;8.64;59.43;94916.19;5080218;28;20066;-75
2022/09/20 04:09:34;;;;;;;3.88;2.40;;;;;;;8.61;59.68;94920.75;5073976;28;20041;-76
2022/09/20 04:12:38;;;;;;;2.90;2.30;;;;;;;8.48;60.50;94923.44;5089995;28;20032;-76
2022/09/20 04:15:17;;;;;;;2.88;2.10;;;;;;;8.44;60.11;94929.75;5078256;28;20088;-76
2022/09/20 04:17:48;;;;;;;2.88;2.10;;;;;;;8.46;59.26;94925.28;5086690;28;20043;-75
2022/09/20 04:20:20;;;;;;;;;;;;;;;8.28;60.57;94930.00;5089992;28;20032;-75
2022/09/20 04:22:46;;;;;;;2.80;2.28;;;;;;;8.10;60.65;94923.56;5089138;28;19962;-75
2022/09/20 04:25:14;;;;;;;6.68;2.10;;;;;;;8.16;61.21;94931.72;5070070;28;20457;-75
2022/09/20 04:27:50;;;;;;;2.90;1.90;;;;;;;8.08;61.09;94936.63;5087479;28;20075;-75
2022/09/20 04:30:18;;;;;;;3.13;1.90;;;;;;;8.01;61.58;94937.97;5067965;28;20059;-75
2022/09/20 04:32:49;;;;;;;2.70;1.88;;;;;;;8.04;61.09;94933.41;5105717;28;20028;-75
2022/09/20 04:38:37;;;;;;;3.22;2.10;;;;;;;7.88;62.11;94934.59;5089434;28;20138;-77
2022/09/20 04:41:48;;;;;;;3.80;2.33;;;;;;;7.79;63.12;94956.75;5073520;28;20556;-75
2022/09/20 04:44:16;;;;;;;;;;;;;;;8.01;62.84;94953.50;5084369;28;20095;-75
2022/09/20 04:46:58;;;;;;;2.65;1.77;;;;;;;8.00;63.03;94950.09;5091674;28;19963;-75
2022/09/20 04:49:51;;;;;;;2.75;2.03;;;;;;;8.14;62.61;94958.66;5069980;28;20540;-76
2022/09/20 04:52:37;;;;;;;2.92;2.00;;;;;;;8.17;62.32;94956.66;5089878;28;20459;-76
2022/09/20 04:55:36;;;;;;;2.47;1.90;;;;;;;8.28;61.64;94955.91;5091059;28;20032;-76
2022/09/20 04:58:26;;;;;;;4.22;2.13;;;;;;;8.53;61.10;94959.34;5089017;28;20516;-76
2022/09/20 05:01:15;;;;;;;3.60;1.80;;;;;;;8.52;60.96;94953.31;5075185;28;20169;-76
2022/09/20 05:04:31;;;;;;;3.95;1.90;;;;;;;8.60;61.01;94957.94;5105630;27;20243;-76
2022/09/20 05:07:21;;;;;;;2.38;1.70;;;;;;;8.62;60.53;94945.72;5076989;28;20040;-75
2022/09/20 05:09:53;;;;;;;3.15;2.05;;;;;;;8.56;60.13;94949.59;5088530;28;20452;-75
2022/09/20 05:12:39;;;;;;;2.25;1.85;;;;;;;8.67;60.18;94961.75;5071397;28;20050;-76
2022/09/20 05:15:07;;;;;;;3.03;1.90;;;;;;;8.64;60.15;94961.97;5073620;28;20044;-76
2022/09/20 05:17:52;;;;;;;2.42;1.63;;;;;;;8.67;60.41;94961.75;5090059;28;20028;-76
2022/09/20 05:20:40;;;;;;;3.15;1.98;;;;;;;8.89;59.72;94956.66;5089854;28;20040;-75
2022/09/20 05:23:31;;;;;;;2.55;1.83;;;;;;;9.31;58.48;94966.53;5089972;28;20127;-75
2022/09/20 05:26:10;;;;;;;2.20;1.88;;;;;;;9.61;58.20;94973.72;5089902;28;20059;-76
2022/09/20 05:28:56;;;;;;;3.97;1.92;;;;;;;9.80;56.90;94973.97;5056746;28;20176;-76
2022/09/20 05:31:36;;;;;;;2.10;1.58;;;;;;;9.89;56.67;94971.59;5073484;28;20024;-76
2022/09/20 05:34:20;;;;;;;3.30;2.08;;;;;;;10.00;56.54;94969.84;5090070;28;20454;-76
2022/09/20 05:36:55;;;;;;;5.47;1.58;;;;;;;10.05;56.28;94972.88;5091170;28;20088;-76
2022/09/20 05:39:39;;;;;;;2.40;1.65;;;;;;;9.97;56.81;94967.50;5089923;28;20089;-76
2022/09/20 05:42:23;;;;;;;2.55;1.80;;;;;;;10.14;55.71;94975.72;5073652;28;20032;-75
2022/09/20 05:45:06;;;;;;;2.78;1.55;;;;;;;10.20;55.70;94976.06;5089843;28;20036;-76
2022/09/20 05:47:41;;;;;;;2.42;1.70;;;;;;;10.13;55.71;94974.88;5072912;28;20028;-76
2022/09/20 05:50:06;;;;;;;2.60;1.70;;;;;;;10.10;55.82;94975.13;5090367;28;20036;-76
2022/09/20 05:52:44;;;;;;;4.68;1.63;;;;;;;10.10;56.19;94975.13;5089939;28;20032;-76
2022/09/20 05:55:10;;;;;;;2.67;1.70;;;;;;;10.23;55.86;94964.63;5070740;28;20044;-76
2022/09/20 05:57:39;;;;;;;3.08;1.90;;;;;;;10.45;55.91;94946.41;5085579;28;20436;-76
2022/09/20 06:00:06;;;;;;;2.30;1.52;;;;;;;10.70;55.33;94966.03;5108970;28;20056;-76
2022/09/20 06:02:59;;;;;;;2.90;1.67;;;;;;;11.03;53.98;94960.81;5104925;28;20024;-76
2022/09/20 06:05:54;;;;;;;3.80;1.50;;;;;;;11.53;53.01;94960.97;5090737;28;20062;-75
2022/09/20 06:08:56;;;;;;;3.85;1.50;;;;;;;11.75;52.23;94966.00;5081222;28;20048;-76
2022/09/20 06:11:53;;;;;;;2.22;1.60;;;;;;;11.88;51.81;94960.63;5089424;28;20382;-74
2022/09/20 06:14:26;;;;;;;1.80;1.35;;;;;;;12.25;51.05;94960.03;5088166;28;20032;-74
2022/09/20 06:17:03;;;;;;;2.05;1.38;;;;;;;12.47;49.79;94965.00;5101091;28;20062;-74
2022/09/20 06:19:45;;;;;;;6.00;3.55;;;;;;;12.42;50.63;94964.59;5087604;28;20086;-75
2022/09/20 06:22:36;;;;;;;3.92;1.80;;;;;;;12.70;49.13;94962.16;5054751;28;20067;-76
2022/09/20 06:25:23;;;;;;;3.47;1.77;;;;;;;12.64;48.23;94918.41;5084541;28;20052;-75
2022/09/20 06:28:05;;;;;;;2.47;1.40;;;;;;;12.84;47.41;94933.09;5082058;28;20060;-74
2022/09/20 06:30:38;;;;;;;6.75;1.40;;;;;;;13.11;47.66;94960.25;5062878;28;20039;-76
2022/09/20 06:33:07;;;;;;;19.50;9.00;;;;;;;13.19;47.34;94955.97;5086966;28;20028;-76
2022/09/20 06:35:37;;;;;;;6.22;2.92;;;;;;;13.38;47.83;94957.75;5071355;28;20025;-74
2022/09/20 06:41:27;;;;;;;2.10;1.27;;;;;;;13.95;45.38;94964.72;5093339;28;20553;-75
2022/09/20 06:44:02;;;;;;;4.80;1.50;;;;;;;14.12;44.89;94956.13;5093077;28;20482;-74
2022/09/20 06:46:30;;;;;;;2.20;1.30;;;;;;;14.31;45.12;94961.25;5078091;28;20040;-74
2022/09/20 06:48:55;;;;;;;1.95;1.27;;;;;;;14.44;44.04;94949.63;5087869;28;20097;-74
2022/09/20 06:51:21;;;;;;;2.78;1.60;;;;;;;14.55;43.95;94967.75;5076317;28;20516;-74
2022/09/20 06:53:47;;;;;;;2.28;1.60;;;;;;;14.52;43.47;94960.22;5094130;28;20072;-74
2022/09/20 06:56:17;;;;;;;3.08;1.88;;;;;;;14.69;43.70;94969.84;5092800;28;20102;-74
2022/09/20 06:58:43;;;;;;;2.22;1.50;;;;;;;14.72;43.43;94964.31;5075799;28;20082;-74
2022/09/20 07:01:08;;;;;;;1.70;1.10;;;;;;;14.97;42.96;94965.38;5092666;28;20432;-74
2022/09/20 07:03:34;;;;;;;1.65;1.00;;;;;;;15.04;42.24;94965.59;5092696;28;20039;-74
2022/09/20 07:05:59;;;;;;;1.83;1.23;;;;;;;15.08;42.54;94964.31;5092633;28;20027;-73
2022/09/20 07:08:25;;;;;;;3.97;1.10;;;;;;;15.23;42.09;94967.22;5092400;28;20036;-74
2022/09/20 07:10:51;;;;;;;1.88;1.33;;;;;;;15.45;42.05;94971.16;5109672;27;20024;-74
2022/09/20 07:13:18;;;;;;;11.65;5.50;;;;;;;15.32;42.41;94976.78;5092557;28;20035;-74
2022/09/20 07:15:44;;;;;;;6.90;3.42;;;;;;;15.19;42.66;94974.56;5109583;27;20036;-75
2022/09/20 07:18:09;;;;;;;4.38;1.90;;;;;;;15.04;43.41;94983.06;5092146;28;20145;-74
2022/09/20 07:20:35;;;;;;;1.90;1.10;;;;;;;14.97;42.15;94978.44;5058735;28;20027;-74
2022/09/20 07:23:01;;;;;;;1.85;1.00;;;;;;;14.91;42.44;94976.44;5058614;28;20413;-74
2022/09/20 07:25:26;;;;;;;1.55;1.00;;;;;;;14.84;43.17;94980.63;5092354;28;20118;-76
2022/09/20 07:27:52;;;;;;;1.83;1.02;;;;;;;14.87;42.52;94988.16;5092150;28;20039;-74
2022/09/20 07:30:18;;;;;;;3.95;1.20;;;;;;;15.05;42.13;94987.34;5092088;28;20460;-74
2022/09/20 07:32:43;;;;;;;1.83;1.10;;;;;;;15.06;42.33;94979.34;5092097;28;20035;-74
2022/09/20 07:35:09;;;;;;;3.58;1.00;;;;;;;15.10;42.16;94985.94;5091898;28;20040;-74
2022/09/20 07:37:35;;;;;;;5.18;1.20;;;;;;;15.00;42.17;94977.34;5075087;28;20032;-74
2022/09/20 07:40:01;;;;;;;1.60;1.00;;;;;;;15.12;41.18;94975.31;5092138;28;20470;-74
2022/09/20 07:42:27;;;;;;;1.40;0.93;;;;;;;15.20;41.22;94967.53;5091905;28;20545;-74
2022/09/20 07:44:54;;;;;;;1.98;1.10;;;;;;;15.02;42.23;94966.72;5093490;28;20050;-74
2022/09/20 07:47:22;;;;;;;1.85;1.13;;;;;;;15.19;42.25;94969.31;5091654;28;20039;-74
2022/09/20 07:49:47;;;;;;;3.50;1.10;;;;;;;15.19;42.77;94978.97;5091938;28;20409;-74
2022/09/20 07:52:13;;;;;;;2.20;1.00;;;;;;;15.31;41.82;94963.84;5091746;28;20020;-74
2022/09/20 07:54:39;;;;;;;2.05;1.00;;;;;;;15.10;42.48;94967.63;5091802;28;20035;-74
2022/09/20 07:57:04;;;;;;;1.85;1.20;;;;;;;15.23;42.48;94958.56;5091893;28;20413;-74
2022/09/20 07:59:30;;;;;;;1.50;0.90;;;;;;;15.49;41.41;94967.25;5091423;28;20433;-73
2022/09/20 08:01:57;;;;;;;1.90;1.30;;;;;;;15.55;41.21;94964.03;5092715;28;20417;-74
2022/09/20 08:04:23;;;;;;;2.83;1.20;;;;;;;15.56;40.75;94963.03;5091570;28;20028;-73
2022/09/20 08:06:48;;;;;;;2.15;0.98;;;;;;;15.51;40.23;94969.72;5091466;28;20102;-73
2022/09/20 08:09:14;;;;;;;2.03;0.90;;;;;;;15.29;40.34;94963.16;5108104;28;20035;-73
2022/09/20 08:11:40;;;;;;;1.50;0.90;;;;;;;15.36;41.21;94961.59;5091424;28;20039;-73
2022/09/20 08:14:07;;;;;;;1.90;1.10;;;;;;;15.51;40.97;94954.81;5091334;28;20127;-74
2022/09/20 08:16:39;;;;;;;1.88;1.10;;;;;;;15.45;41.50;94950.19;5091217;28;20032;-74
2022/09/20 08:19:04;;;;;;;2.20;1.05;;;;;;;15.49;40.77;94958.56;5091096;28;20482;-74
2022/09/20 08:21:31;;;;;;;1.95;1.00;;;;;;;15.39;39.71;94940.34;5092350;28;20031;-74
2022/09/20 08:23:57;;;;;;;1.25;0.80;;;;;;;15.61;39.39;94971.25;5108073;28;20036;-74
2022/09/20 08:26:23;;;;;;;2.17;1.00;;;;;;;15.40;39.38;94971.59;5092282;28;20048;-74
2022/09/20 08:28:53;;;;;;;3.30;1.02;;;;;;;15.40;38.81;94962.91;5073867;28;20028;-74
2022/09/20 08:31:19;;;;;;;1.50;0.90;;;;;;;15.37;39.45;94964.03;5090935;28;20043;-74
2022/09/20 08:33:45;;;;;;;1.65;1.08;;;;;;;15.46;39.57;94957.09;5090954;28;20473;-74
2022/09/20 08:36:12;;;;;;;1.52;0.90;;;;;;;15.34;39.13;94945.22;5090834;28;20543;-73
2022/09/20 08:38:38;;;;;;;2.22;0.90;;;;;;;15.47;38.24;94945.66;5090752;28;20040;-73
2022/09/20 08:41:26;;;;;;;1.55;1.20;;;;;;;15.28;38.72;94953.69;5073786;28;20031;-73
2022/09/20 08:44:17;;;;;;;2.05;0.90;;;;;;;15.41;39.04;94954.13;5073638;28;20044;-74
2022/09/20 08:46:49;;;;;;;;;;;;;;;15.44;38.11;94948.56;5091268;28;20031;-74
2022/09/20 08:49:25;;;;;;;1.45;0.88;;;;;;;15.39;39.34;94938.56;5090643;28;19919;-74
2022/09/20 08:51:50;;;;;;;1.20;0.80;;;;;;;15.30;38.19;94938.66;5073615;28;20024;-74
2022/09/20 08:54:16;;;;;;;2.53;1.15;;;;;;;15.51;38.21;94938.28;5073705;28;20044;-74
2022/09/20 08:56:45;;;;;;;6.82;1.15;;;;;;;15.71;39.26;94929.31;5073588;28;20048;-75
2022/09/20 08:59:17;;;;;;;1.77;1.00;;;;;;;15.64;38.44;94929.06;5073191;28;20063;-75
2022/09/20 09:01:43;;;;;;;1.80;1.10;;;;;;;15.54;38.29;94912.63;5090806;28;20031;-75
2022/09/20 09:04:11;;;;;;;1.98;1.20;;;;;;;15.35;39.67;94923.28;5090545;28;20435;-76
2022/09/20 09:06:37;;;;;;;3.10;1.20;;;;;;;15.25;40.32;94933.06;5090312;28;20036;-76
2022/09/20 09:09:03;;;;;;;1.67;0.80;;;;;;;15.23;38.89;94921.91;5090463;28;20416;-76
2022/09/20 09:11:28;;;;;;;1.55;1.00;;;;;;;15.09;39.15;94921.47;5091584;28;20020;-76
2022/09/20 09:14:46;;;;;;;1.30;0.82;;;;;;;15.19;38.05;94908.31;5090274;28;20040;-76
2022/09/20 09:16:48;;;;;;;1.52;0.80;;;;;;;15.23;40.68;94906.22;5090382;28;20110;-74
2022/09/20 09:19:27;;;;;;;2.50;1.00;;;;;;;15.23;39.76;94893.13;5090131;28;20036;-73
2022/09/20 09:22:00;;;;;;;1.95;0.90;;;;;;;15.36;39.19;94914.50;5090089;28;20042;-74
2022/09/20 09:24:26;;;;;;;1.60;1.00;;;;;;;15.30;39.14;94905.47;5090147;28;20401;-74
2022/09/20 09:27:16;;;;;;;1.33;0.85;;;;;;;15.25;38.47;94907.72;5090018;28;20024;-74
2022/09/20 09:29:53;;;;;;;1.88;0.85;;;;;;;15.27;39.18;94904.94;5090187;28;20503;-74
2022/09/20 09:32:22;;;;;;;1.77;0.90;;;;;;;15.24;39.75;94907.84;5107090;28;20028;-74
2022/09/20 09:34:48;;;;;;;1.98;0.90;;;;;;;15.21;38.87;94901.16;5106760;28;20118;-74
2022/09/20 09:37:25;;;;;;;1.65;0.90;;;;;;;15.24;40.26;94886.91;5073036;28;20062;-74
2022/09/20 09:40:06;;;;;;;1.70;0.98;;;;;;;15.23;40.02;94885.28;5073068;28;20043;-74
2022/09/20 09:42:32;;;;;;;1.83;1.00;;;;;;;15.17;39.03;94892.75;5089894;28;20501;-74
2022/09/20 09:45:26;;;;;;;2.42;1.10;;;;;;;15.19;40.06;94893.44;5089932;28;20281;-74
2022/09/20 09:47:53;;;;;;;1.65;0.88;;;;;;;15.20;40.82;94894.25;5074800;28;20500;-74
2022/09/20 09:50:23;;;;;;;1.73;0.90;;;;;;;15.31;40.96;94891.38;5089674;28;20073;-73
2022/09/20 09:52:59;;;;;;;1.90;1.00;;;;;;;15.45;40.22;94886.56;5089698;28;20082;-74
2022/09/20 09:55:51;;;;;;;1.88;0.80;;;;;;;15.58;39.58;94886.97;5089580;28;20048;-74
2022/09/20 09:58:57;;;;;;;1.98;1.00;;;;;;;15.75;40.71;94887.91;5089507;28;20024;-74
2022/09/20 10:01:28;;;;;;;2.03;0.93;;;;;;;15.50;39.81;94881.69;5089249;28;20043;-74
2022/09/20 10:04:19;;;;;;;3.22;1.70;;;;;;;15.79;39.70;94884.78;5089538;28;20024;-74
2022/09/20 10:06:49;;;;;;;3.08;1.40;;;;;;;15.92;38.93;94879.13;5089866;28;20031;-74
2022/09/20 10:09:24;;;;;;;;;;;;;;;15.81;37.99;94879.41;5090142;28;20043;-74
2022/09/20 10:12:03;;;;;;;1.50;0.95;;;;;;;15.86;37.70;94880.56;5094164;28;19926;-74
2022/09/20 10:14:43;;;;;;;1.35;0.90;;;;;;;15.96;38.84;94877.81;5093706;28;20591;-74
2022/09/20 10:17:30;;;;;;;1.80;1.00;;;;;;;16.05;38.50;94881.31;5093513;28;20173;-74
2022/09/20 10:20:06;;;;;;;1.80;1.10;;;;;;;15.96;37.71;94885.66;5093623;28;20101;-74
2022/09/20 10:22:45;;;;;;;1.98;0.80;;;;;;;15.95;38.41;94881.44;5093522;28;20024;-74
2022/09/20 10:25:38;;;;;;;2.80;0.90;;;;;;;15.96;38.96;94877.00;5093435;28;20063;-74
2022/09/20 10:28:23;;;;;;;1.23;0.90;;;;;;;15.93;37.53;94879.94;5093293;28;20047;-74
2022/09/20 10:31:09;;;;;;;1.50;0.88;;;;;;;15.76;38.26;94868.56;5094517;28;20036;-74
2022/09/20 10:33:36;;;;;;;3.63;1.10;;;;;;;15.70;37.82;94864.78;5093190;28;20093;-74
2022/09/20 10:36:20;;;;;;;2.70;1.30;;;;;;;15.62;38.20;94872.56;5094391;28;20027;-74
2022/09/20 10:39:23;;;;;;;1.15;0.70;;;;;;;15.68;37.60;94861.50;5094513;28;20113;-74
2022/09/20 10:45:06;;;;;;;1.83;0.90;;;;;;;15.73;37.89;94876.75;5094884;28;20465;-74
2022/09/20 10:47:34;;;;;;;1.42;0.80;;;;;;;15.62;37.70;94846.38;5094203;28;20024;-74
2022/09/20 10:50:11;;;;;;;1.40;0.77;;;;;;;15.57;38.37;94859.97;5093144;28;20042;-74
2022/09/20 10:52:53;;;;;;;4.50;0.95;;;;;;;15.66;38.68;94858.22;5093044;28;20024;-74
2022/09/20 10:55:24;;;;;;;1.42;0.77;;;;;;;15.71;38.55;94863.00;5092701;28;20040;-74
2022/09/20 10:58:28;;;;;;;2.63;1.15;;;;;;;15.84;38.30;94861.56;5076196;28;20028;-74
2022/09/20 11:00:53;;;;;;;1.30;0.90;;;;;;;15.96;37.72;94867.34;5092672;28;20055;-74
2022/09/20 11:03:42;;;;;;;1.63;0.90;;;;;;;16.00;37.34;94862.63;5093806;28;20028;-74
2022/09/20 11:06:23;;;;;;;2.35;1.00;;;;;;;16.08;37.60;94867.88;5092545;28;20028;-74
2022/09/20 11:08:50;;;;;;;1.60;0.93;;;;;;;16.22;37.20;94858.59;5092482;28;20127;-74
2022/09/20 11:11:24;;;;;;;2.25;0.95;;;;;;;16.00;36.58;94847.72;5075873;28;20247;-74
2022/09/20 11:13:56;;;;;;;3.97;1.20;;;;;;;16.14;36.22;94848.09;5075674;28;20028;-74
2022/09/20 11:16:43;;;;;;;1.50;1.10;;;;;;;15.94;36.53;94819.53;5092394;28;20039;-74
2022/09/20 11:19:39;;;;;;;1.60;1.10;;;;;;;16.18;37.03;94844.97;5092235;28;20523;-74
2022/09/20 11:22:07;;;;;;;1.75;1.00;;;;;;;16.11;35.96;94838.75;5091900;28;20036;-75
2022/09/20 11:24:37;;;;;;;1.63;1.10;;;;;;;16.15;36.80;94837.44;5093833;28;20031;-74
2022/09/20 11:27:31;;;;;;;1.83;1.27;;;;;;;16.29;37.26;94833.38;5075769;28;20141;-74
2022/09/20 11:30:27;;;;;;;5.28;1.33;;;;;;;16.39;36.83;94836.66;5092492;28;20134;-74
2022/09/20 11:33:01;;;;;;;1.98;1.40;;;;;;;16.45;36.64;94843.88;5092315;28;20028;-74
2022/09/20 11:35:29;;;;;;;1.60;1.27;;;;;;;16.46;35.73;94844.69;5091905;28;20036;-74
2022/09/20 11:38:24;;;;;;;2.75;1.30;;;;;;;16.57;35.45;94830.44;5075044;28;20035;-74
2022/09/20 11:40:58;;;;;;;2.47;1.20;;;;;;;16.51;34.61;94842.41;5093197;28;20116;-74
2022/09/20 11:43:27;;;;;;;1.60;1.27;;;;;;;16.43;34.89;94840.59;5091862;28;20032;-74
2022/09/20 11:45:54;;;;;;;1.90;1.20;;;;;;;16.59;34.85;94836.34;5109387;27;20081;-75
2022/09/20 11:48:29;;;;;;;3.97;1.20;;;;;;;16.43;35.20;94829.28;5108996;27;20068;-75
2022/09/20 11:51:01;;;;;;;1.45;1.00;;;;;;;16.54;34.60;94842.06;5091832;28;20052;-75
2022/09/20 11:53:41;;;;;;;1.60;1.20;;;;;;;16.50;34.55;94831.09;5092956;28;20040;-75
2022/09/20 11:56:34;;;;;;;2.03;1.20;;;;;;;16.54;35.10;94827.16;5091695;28;20031;-75
2022/09/20 11:59:01;;;;;;;1.50;1.20;;;;;;;16.48;35.18;94813.91;5107111;27;20056;-74
2022/09/20 12:01:37;;;;;;;1.98;1.20;;;;;;;16.52;35.56;94818.66;5091587;28;20034;-75
2022/09/20 12:04:21;;;;;;;1.80;1.10;;;;;;;16.67;35.83;94824.06;5091552;28;20036;-75
2022/09/20 12:06:52;;;;;;;1.30;1.00;;;;;;;16.68;35.72;94825.69;5091380;28;20027;-75
2022/09/20 12:09:44;;;;;;;;;;;;;;;16.69;35.44;94832.59;5091755;28;20036;-75
2022/09/20 12:12:15;;;;;;;1.45;1.10;;;;;;;16.63;35.74;94824.53;5092180;28;19986;-75
2022/09/20 12:14:41;;;;;;;1.50;1.10;;;;;;;16.54;35.11;94810.59;5091198;28;20063;-75
2022/09/20 12:17:44;;;;;;;1.63;1.00;;;;;;;16.61;35.45;94821.28;5091151;28;20040;-75
2022/09/20 12:20:31;;;;;;;1.60;0.88;;;;;;;16.54;34.64;94811.44;5091188;28;20070;-75
2022/09/20 12:23:34;;;;;;;1.17;0.70;;;;;;;16.39;35.23;94817.50;5092293;28;20505;-75
2022/09/20 12:26:06;;;;;;;1.40;1.00;;;;;;;16.58;34.63;94805.88;5091024;28;20024;-75
2022/09/20 12:28:36;;;;;;;2.10;1.10;;;;;;;16.58;34.99;94801.44;5091040;28;20217;-75
2022/09/20 12:31:17;;;;;;;1.60;1.00;;;;;;;16.58;34.88;94803.25;5091072;28;20031;-75
2022/09/20 12:34:01;;;;;;;1.38;0.93;;;;;;;16.60;34.93;94804.69;5091448;28;20502;-75
2022/09/20 12:36:29;;;;;;;1.83;1.15;;;;;;;16.66;34.86;94804.06;5091987;28;20123;-75
2022/09/20 12:39:05;;;;;;;1.30;0.80;;;;;;;16.72;34.61;94803.41;5090801;28;20113;-75
2022/09/20 12:42:03;;;;;;;1.40;1.10;;;;;;;16.58;34.69;94790.97;5090841;28;20027;-75
2022/09/20 12:44:29;;;;;;;1.60;0.98;;;;;;;16.61;35.62;94803.75;5090055;28;20040;-75
2022/09/20 12:46:59;;;;;;;1.77;1.10;;;;;;;16.71;35.24;94808.81;5090650;28;20103;-75
2022/09/20 12:52:55;;;;;;;1.67;1.00;;;;;;;16.74;33.27;94800.59;5092107;28;20520;-75
2022/09/20 12:55:40;;;;;;;1.20;0.90;;;;;;;16.73;33.18;94801.59;5077417;28;20043;-75